createdAt,value
2022-12-29T00:00:09.614Z,2.23
2022-12-29T00:02:37.526Z,1.83
2022-12-29T00:05:06.220Z,1.87
2022-12-29T00:07:34.295Z,2.10
2022-12-29T00:10:02.135Z,1.63
2022-12-29T00:12:51.288Z,1.80
2022-12-29T00:15:36.611Z,1.70
2022-12-29T00:18:04.637Z,2.00
2022-12-29T00:20:53.416Z,1.77
2022-12-29T00:23:39.605Z,1.77
2022-12-29T00:26:32.244Z,1.90
2022-12-29T00:29:20.462Z,1.70
2022-12-29T00:32:05.837Z,1.87
2022-12-29T00:34:51.129Z,1.70
2022-12-29T00:37:39.501Z,1.60
2022-12-29T00:40:25.811Z,1.80
2022-12-29T00:43:11.119Z,1.60
2022-12-29T00:45:42.343Z,1.93
2022-12-29T00:48:10.259Z,1.43
2022-12-29T00:50:37.191Z,1.90
2022-12-29T00:53:05.507Z,1.43
2022-12-29T00:55:33.340Z,1.53
2022-12-29T00:58:01.470Z,1.30
2022-12-29T01:00:29.347Z,1.30
2022-12-29T01:02:58.717Z,1.23
2022-12-29T01:05:26.615Z,1.50
2022-12-29T01:07:54.504Z,1.20
2022-12-29T01:10:21.377Z,1.27
2022-12-29T01:12:50.760Z,1.30
2022-12-29T01:15:18.740Z,1.03
2022-12-29T01:17:46.626Z,1.43
2022-12-29T01:20:15.922Z,1.10
2022-12-29T01:22:44.738Z,1.10
2022-12-29T01:25:13.667Z,1.17
2022-12-29T01:27:41.918Z,1.10
2022-12-29T01:30:11.112Z,1.10
2022-12-29T01:32:39.020Z,1.17
2022-12-29T01:35:07.545Z,1.30
2022-12-29T01:37:36.736Z,1.10
2022-12-29T01:40:05.033Z,1.23
2022-12-29T01:42:32.948Z,1.00
2022-12-29T01:45:03.680Z,1.17
2022-12-29T01:47:36.624Z,1.20
2022-12-29T01:50:10.626Z,1.07
2022-12-29T01:52:47.672Z,1.10
2022-12-29T01:55:16.386Z,1.10
2022-12-29T01:57:49.823Z,1.17
2022-12-29T02:00:18.240Z,0.70
2022-12-29T02:02:52.361Z,0.80
2022-12-29T02:05:27.134Z,0.90
2022-12-29T02:07:56.688Z,0.80
2022-12-29T02:10:27.744Z,0.93
2022-12-29T02:12:56.280Z,1.03
2022-12-29T02:15:39.902Z,0.90
2022-12-29T02:18:30.763Z,0.97
2022-12-29T02:21:27.599Z,0.83
2022-12-29T02:24:28.151Z,0.90
2022-12-29T02:27:24.911Z,1.00
2022-12-29T02:30:06.087Z,0.80
2022-12-29T02:32:40.778Z,0.80
2022-12-29T02:35:16.250Z,0.97
2022-12-29T02:37:52.401Z,0.70
2022-12-29T02:40:26.590Z,0.73
2022-12-29T02:43:03.290Z,1.00
2022-12-29T02:45:37.225Z,1.03
2022-12-29T02:48:16.105Z,0.83
2022-12-29T02:50:52.954Z,0.93
2022-12-29T02:53:42.991Z,1.00
2022-12-29T02:56:09.881Z,0.90
2022-12-29T02:58:37.749Z,1.07
2022-12-29T03:01:31.581Z,0.90
2022-12-29T03:04:23.912Z,1.13
2022-12-29T03:07:00.001Z,1.13
2022-12-29T03:09:36.406Z,0.67
2022-12-29T03:12:13.462Z,0.90
2022-12-29T03:15:11.661Z,0.60
2022-12-29T03:17:49.160Z,0.60
2022-12-29T03:20:24.591Z,0.70
2022-12-29T03:22:55.779Z,0.80
2022-12-29T03:25:28.181Z,0.87
2022-12-29T03:28:00.496Z,0.80
2022-12-29T03:30:30.205Z,1.20
2022-12-29T03:33:01.714Z,1.10
2022-12-29T03:35:34.873Z,1.30
2022-12-29T03:38:09.778Z,1.00
2022-12-29T03:40:38.757Z,1.23
2022-12-29T03:43:07.229Z,1.17
2022-12-29T03:45:35.391Z,1.00
2022-12-29T03:48:03.279Z,1.20
2022-12-29T03:50:32.508Z,1.57
2022-12-29T03:53:00.458Z,1.20
2022-12-29T03:55:28.440Z,1.37
2022-12-29T03:57:56.289Z,1.60
2022-12-29T04:00:24.201Z,1.27
2022-12-29T04:02:52.292Z,1.67
2022-12-29T04:05:20.418Z,1.43
2022-12-29T04:07:49.732Z,1.50
2022-12-29T04:10:17.694Z,1.53
2022-12-29T04:12:47.543Z,1.20
2022-12-29T04:15:15.661Z,1.93
2022-12-29T04:17:43.518Z,1.40
2022-12-29T04:20:29.606Z,1.73
2022-12-29T04:23:03.024Z,1.70
2022-12-29T04:25:30.926Z,1.50
2022-12-29T04:27:58.939Z,2.57
2022-12-29T04:30:27.193Z,1.20
2022-12-29T04:32:55.391Z,1.40
2022-12-29T04:35:23.214Z,1.27
2022-12-29T04:37:51.153Z,1.27
2022-12-29T04:40:20.495Z,1.00
2022-12-29T04:42:48.391Z,1.03
2022-12-29T04:45:16.437Z,1.33
2022-12-29T04:47:45.028Z,1.20
2022-12-29T04:50:13.024Z,1.60
2022-12-29T04:52:41.104Z,1.43
2022-12-29T04:55:09.744Z,1.20
2022-12-29T04:57:38.981Z,1.43
2022-12-29T05:00:09.729Z,0.93
2022-12-29T05:02:37.898Z,1.30
2022-12-29T05:05:06.738Z,1.20
2022-12-29T05:07:35.667Z,1.27
2022-12-29T05:10:03.654Z,1.53
2022-12-29T05:12:32.723Z,1.80
2022-12-29T05:15:03.638Z,1.90
2022-12-29T05:17:31.673Z,1.90
2022-12-29T05:19:59.575Z,2.23
2022-12-29T05:22:27.755Z,1.87
2022-12-29T05:24:55.666Z,1.90
2022-12-29T05:27:23.519Z,1.77
2022-12-29T05:29:51.374Z,1.80
2022-12-29T05:32:20.669Z,1.63
2022-12-29T05:34:48.521Z,1.80
2022-12-29T05:37:16.374Z,1.50
2022-12-29T05:39:46.360Z,1.50
2022-12-29T05:42:14.210Z,1.70
2022-12-29T05:44:42.325Z,1.47
2022-12-29T05:47:10.356Z,1.83
2022-12-29T05:49:39.780Z,1.87
2022-12-29T05:52:07.659Z,1.47
2022-12-29T05:54:35.487Z,1.47
2022-12-29T05:57:03.362Z,1.90
2022-12-29T05:59:31.284Z,1.70
2022-12-29T06:01:59.385Z,1.37
2022-12-29T06:04:27.444Z,1.70
2022-12-29T06:06:56.740Z,1.90
2022-12-29T06:09:24.656Z,1.63
2022-12-29T06:11:52.685Z,1.77
2022-12-29T06:14:21.219Z,2.10
2022-12-29T06:16:49.171Z,2.07
2022-12-29T06:19:17.122Z,2.47
2022-12-29T06:21:45.129Z,1.80
2022-12-29T06:24:14.416Z,2.03
2022-12-29T06:26:42.880Z,1.63
2022-12-29T06:29:10.840Z,1.90
2022-12-29T06:31:38.776Z,2.00
2022-12-29T06:34:08.652Z,1.73
2022-12-29T06:36:36.789Z,1.90
2022-12-29T06:39:04.799Z,4.50
2022-12-29T06:41:34.102Z,2.63
2022-12-29T06:44:02.002Z,2.00
2022-12-29T06:46:30.007Z,2.17
2022-12-29T06:48:57.983Z,1.83
2022-12-29T06:51:26.018Z,1.60
2022-12-29T06:53:53.941Z,1.97
2022-12-29T06:56:21.836Z,2.17
2022-12-29T06:58:51.324Z,2.10
2022-12-29T07:01:19.194Z,1.90
2022-12-29T07:03:47.130Z,1.90
2022-12-29T07:06:15.007Z,2.20
2022-12-29T07:08:42.874Z,1.80
2022-12-29T07:11:10.962Z,2.03
2022-12-29T07:13:39.138Z,2.33
2022-12-29T07:16:09.822Z,2.10
2022-12-29T07:18:37.781Z,2.50
2022-12-29T07:21:06.227Z,2.07
2022-12-29T07:23:34.109Z,2.13
2022-12-29T07:26:03.012Z,2.33
2022-12-29T07:28:31.073Z,2.40
2022-12-29T07:30:59.005Z,2.50
2022-12-29T07:33:30.909Z,3.00
2022-12-29T07:35:59.154Z,2.37
2022-12-29T07:38:27.097Z,2.37
2022-12-29T07:40:58.924Z,2.40
2022-12-29T07:43:26.855Z,2.50
2022-12-29T07:45:54.881Z,2.07
2022-12-29T07:48:23.309Z,2.83
2022-12-29T07:50:52.886Z,2.20
2022-12-29T07:53:21.033Z,2.37
2022-12-29T07:55:48.967Z,1.90
2022-12-29T07:58:16.776Z,2.23
2022-12-29T08:00:44.697Z,2.13
2022-12-29T08:03:12.592Z,2.20
2022-12-29T08:05:40.463Z,1.90
2022-12-29T08:08:09.713Z,2.23
2022-12-29T08:10:37.670Z,2.10
2022-12-29T08:13:05.555Z,1.80
2022-12-29T08:15:33.559Z,2.00
2022-12-29T08:18:01.820Z,2.33
2022-12-29T08:20:29.783Z,1.90
2022-12-29T08:22:57.696Z,1.70
2022-12-29T08:25:27.009Z,2.50
2022-12-29T08:27:54.853Z,2.07
2022-12-29T08:30:22.687Z,1.83
2022-12-29T08:32:50.562Z,2.37
2022-12-29T08:35:18.664Z,2.40
2022-12-29T08:37:46.505Z,1.97
2022-12-29T08:40:14.908Z,2.60
2022-12-29T08:42:44.182Z,1.93
2022-12-29T08:45:12.556Z,2.67
2022-12-29T08:47:40.500Z,2.50
2022-12-29T08:50:09.219Z,2.03
2022-12-29T08:52:37.084Z,2.10
2022-12-29T08:55:05.561Z,2.23
2022-12-29T08:57:33.398Z,2.40
2022-12-29T09:00:02.851Z,1.90
2022-12-29T09:02:30.929Z,1.83
2022-12-29T09:04:59.948Z,2.23
2022-12-29T09:07:28.081Z,2.23
2022-12-29T09:09:55.916Z,2.30
2022-12-29T09:12:23.701Z,2.60
2022-12-29T09:14:52.108Z,2.47
2022-12-29T09:17:38.662Z,2.30
2022-12-29T09:20:07.418Z,2.33
2022-12-29T09:22:35.379Z,2.33
2022-12-29T09:25:03.272Z,2.23
2022-12-29T09:27:31.878Z,2.13
2022-12-29T09:29:59.930Z,2.40
2022-12-29T09:32:33.685Z,2.10
2022-12-29T09:35:02.169Z,2.60
2022-12-29T09:37:30.295Z,1.97
2022-12-29T09:39:58.227Z,2.20
2022-12-29T09:42:31.928Z,1.53
2022-12-29T09:45:12.419Z,2.23
2022-12-29T09:47:44.071Z,1.93
2022-12-29T09:50:19.307Z,1.90
2022-12-29T09:52:52.560Z,1.63
2022-12-29T09:55:24.629Z,1.33
2022-12-29T09:57:58.402Z,1.33
2022-12-29T10:00:40.710Z,1.67
2022-12-29T10:03:17.438Z,2.50
2022-12-29T10:05:50.203Z,2.50
2022-12-29T10:08:32.141Z,2.23
2022-12-29T10:11:11.808Z,1.83
2022-12-29T10:13:57.070Z,1.93
2022-12-29T10:16:35.173Z,2.33
2022-12-29T10:19:32.759Z,2.00
2022-12-29T10:22:14.687Z,1.93
2022-12-29T10:24:43.412Z,1.93
2022-12-29T10:27:14.153Z,2.07
2022-12-29T10:29:46.683Z,2.70
2022-12-29T10:32:25.112Z,1.97
2022-12-29T10:34:57.608Z,2.30
2022-12-29T10:37:36.448Z,2.80
2022-12-29T10:40:18.982Z,2.90
2022-12-29T10:42:51.661Z,3.07
2022-12-29T10:45:21.241Z,3.57
2022-12-29T10:47:57.731Z,3.10
2022-12-29T10:50:30.391Z,2.47
2022-12-29T10:53:02.201Z,2.67
2022-12-29T10:55:34.172Z,3.00
2022-12-29T10:58:05.668Z,2.77
2022-12-29T11:00:34.840Z,2.67
2022-12-29T11:03:36.957Z,2.80
2022-12-29T11:06:10.939Z,2.80
2022-12-29T11:08:42.007Z,2.77
2022-12-29T11:11:11.638Z,3.23
2022-12-29T11:13:50.317Z,2.93
2022-12-29T11:16:31.600Z,3.40
2022-12-29T11:19:00.201Z,4.20
2022-12-29T11:21:41.043Z,3.30
2022-12-29T11:24:22.641Z,3.47
2022-12-29T11:26:53.893Z,3.47
2022-12-29T11:29:27.541Z,2.80
2022-12-29T11:31:58.485Z,4.00
2022-12-29T11:34:28.042Z,3.57
2022-12-29T11:37:02.565Z,4.20
2022-12-29T11:39:36.033Z,3.70
2022-12-29T11:42:04.854Z,3.30
2022-12-29T11:44:38.328Z,3.43
2022-12-29T11:47:07.493Z,3.43
2022-12-29T11:49:35.392Z,2.90
2022-12-29T11:52:05.036Z,3.57
2022-12-29T11:54:36.926Z,2.73
2022-12-29T11:57:14.284Z,3.00
2022-12-29T11:59:44.649Z,3.70
2022-12-29T12:02:40.530Z,3.20
2022-12-29T12:05:21.961Z,3.13
2022-12-29T12:07:56.852Z,2.80
2022-12-29T12:10:30.469Z,2.80
2022-12-29T12:13:10.203Z,3.63
2022-12-29T12:15:46.728Z,3.00
2022-12-29T12:18:21.855Z,2.87
2022-12-29T12:20:56.083Z,2.43
2022-12-29T12:23:34.173Z,2.33
2022-12-29T12:26:11.763Z,2.90
2022-12-29T12:28:47.852Z,2.63
2022-12-29T12:31:24.536Z,2.37
2022-12-29T12:34:00.081Z,2.47
2022-12-29T12:36:50.295Z,2.70
2022-12-29T12:39:28.487Z,2.37
2022-12-29T12:42:10.824Z,2.33
2022-12-29T12:44:51.288Z,3.03
2022-12-29T12:47:42.816Z,2.20
2022-12-29T12:50:40.536Z,2.17
2022-12-29T12:53:27.745Z,1.93
2022-12-29T12:56:13.117Z,2.43
2022-12-29T12:58:50.297Z,2.60
2022-12-29T13:01:32.352Z,2.10
2022-12-29T13:04:23.109Z,1.97
2022-12-29T13:06:59.087Z,1.90
2022-12-29T13:09:39.220Z,2.80
2022-12-29T13:12:23.789Z,1.50
2022-12-29T13:15:02.032Z,1.63
2022-12-29T13:17:37.692Z,2.03
2022-12-29T13:20:18.090Z,1.80
2022-12-29T13:22:52.728Z,2.00
2022-12-29T13:25:28.647Z,2.03
2022-12-29T13:28:05.905Z,2.10
2022-12-29T13:30:38.849Z,1.97
2022-12-29T13:33:21.326Z,2.47
2022-12-29T13:36:04.061Z,2.40
2022-12-29T13:38:38.063Z,2.13
2022-12-29T13:41:10.853Z,2.57
2022-12-29T13:43:42.765Z,2.13
2022-12-29T13:46:14.588Z,2.13
2022-12-29T13:48:48.259Z,2.50
2022-12-29T13:51:21.420Z,1.67
2022-12-29T13:54:04.993Z,2.20
2022-12-29T13:56:40.894Z,2.17
2022-12-29T13:59:19.334Z,2.53
2022-12-29T14:01:52.979Z,1.93
2022-12-29T14:04:25.303Z,2.27
2022-12-29T14:07:04.874Z,1.87
2022-12-29T14:09:47.295Z,2.17
2022-12-29T14:12:38.318Z,1.63
2022-12-29T14:15:24.123Z,2.33
2022-12-29T14:18:07.144Z,1.93
2022-12-29T14:20:35.801Z,2.43
2022-12-29T14:23:18.817Z,2.10
2022-12-29T14:26:01.875Z,2.10
2022-12-29T14:28:31.305Z,2.40
2022-12-29T14:31:01.190Z,2.43
2022-12-29T14:33:32.380Z,1.77
2022-12-29T14:36:21.665Z,2.20
2022-12-29T14:38:50.158Z,1.90
2022-12-29T14:41:26.122Z,2.30
2022-12-29T14:43:58.069Z,2.57
2022-12-29T14:46:27.895Z,2.60
2022-12-29T14:49:01.837Z,2.10
2022-12-29T14:51:36.135Z,2.07
2022-12-29T14:54:41.813Z,2.23
2022-12-29T14:57:18.007Z,2.70
2022-12-29T14:59:46.980Z,2.50
2022-12-29T15:02:19.192Z,2.17
2022-12-29T15:04:48.335Z,2.00
2022-12-29T15:07:17.229Z,1.90
2022-12-29T15:09:50.478Z,1.63
2022-12-29T15:12:28.761Z,1.87
2022-12-29T15:14:58.161Z,2.10
2022-12-29T15:17:28.879Z,1.60
2022-12-29T15:19:58.277Z,1.20
2022-12-29T15:22:27.131Z,1.93
2022-12-29T15:24:57.387Z,1.20
2022-12-29T15:27:28.269Z,1.50
2022-12-29T15:30:02.645Z,1.83
2022-12-29T15:32:40.744Z,1.53
2022-12-29T15:35:29.356Z,1.97
2022-12-29T15:37:57.736Z,1.53
2022-12-29T15:40:28.256Z,1.73
2022-12-29T15:43:27.295Z,1.50
2022-12-29T15:45:56.905Z,1.57
2022-12-29T15:48:27.152Z,1.40
2022-12-29T15:50:55.173Z,1.40
2022-12-29T15:53:29.183Z,1.87
2022-12-29T15:56:03.440Z,2.30
2022-12-29T15:58:40.915Z,1.83
2022-12-29T16:01:20.433Z,2.20
2022-12-29T16:03:49.219Z,2.27
2022-12-29T16:06:32.619Z,2.43
2022-12-29T16:09:05.467Z,2.17
2022-12-29T16:11:37.309Z,2.57
2022-12-29T16:14:11.657Z,1.80
2022-12-29T16:16:42.702Z,2.10
2022-12-29T16:19:16.025Z,2.43
2022-12-29T16:21:45.164Z,2.00
2022-12-29T16:24:17.703Z,2.00
2022-12-29T16:26:50.917Z,1.10
2022-12-29T16:29:22.622Z,1.73
2022-12-29T16:31:53.506Z,1.57
2022-12-29T16:34:26.572Z,1.60
2022-12-29T16:36:56.895Z,2.23
2022-12-29T16:39:33.568Z,1.80
2022-12-29T16:42:01.559Z,1.97
2022-12-29T16:44:32.449Z,2.07
2022-12-29T16:47:22.379Z,4.37
2022-12-29T16:49:55.416Z,2.43
2022-12-29T16:52:29.155Z,2.53
2022-12-29T16:55:01.127Z,2.37
2022-12-29T16:57:32.299Z,2.40
2022-12-29T17:00:03.697Z,2.33
2022-12-29T17:02:35.603Z,1.97
2022-12-29T17:05:03.663Z,2.57
2022-12-29T17:07:32.517Z,2.33
2022-12-29T17:10:00.521Z,2.17
2022-12-29T17:12:30.829Z,2.07
2022-12-29T17:15:02.634Z,2.37
2022-12-29T17:17:34.533Z,2.70
2022-12-29T17:20:05.376Z,2.63
2022-12-29T17:22:33.854Z,2.30
2022-12-29T17:25:03.767Z,2.10
2022-12-29T17:27:37.064Z,2.53
2022-12-29T17:30:11.952Z,2.00
2022-12-29T17:32:40.977Z,2.07
2022-12-29T17:35:16.110Z,2.40
2022-12-29T17:37:44.329Z,2.10
2022-12-29T17:40:15.950Z,2.10
2022-12-29T17:42:46.076Z,2.60
2022-12-29T17:45:18.550Z,2.70
2022-12-29T17:47:46.858Z,2.57
2022-12-29T17:50:15.743Z,2.33
2022-12-29T17:52:45.261Z,2.73
2022-12-29T17:55:18.019Z,2.17
2022-12-29T17:57:46.492Z,2.13
2022-12-29T18:00:21.464Z,2.17
2022-12-29T18:02:50.280Z,2.30
2022-12-29T18:05:21.313Z,2.03
2022-12-29T18:07:50.156Z,2.57
2022-12-29T18:10:18.235Z,2.20
2022-12-29T18:12:47.987Z,3.03
2022-12-29T18:15:21.329Z,2.20
2022-12-29T18:17:49.540Z,2.57
2022-12-29T18:20:17.900Z,2.60
2022-12-29T18:22:45.731Z,1.80
2022-12-29T18:25:27.016Z,2.47
2022-12-29T18:27:54.884Z,3.77
2022-12-29T18:30:24.316Z,2.20
2022-12-29T18:32:52.158Z,2.33
2022-12-29T18:35:35.999Z,2.10
2022-12-29T18:38:05.977Z,1.80
2022-12-29T18:40:34.048Z,1.97
2022-12-29T18:43:02.012Z,2.57
2022-12-29T18:45:33.639Z,2.20
2022-12-29T18:48:01.784Z,2.27
2022-12-29T18:50:29.729Z,2.03
2022-12-29T18:53:03.563Z,2.40
2022-12-29T18:55:32.243Z,2.40
2022-12-29T18:58:00.647Z,2.83
2022-12-29T19:00:28.533Z,2.17
2022-12-29T19:02:57.820Z,3.10
2022-12-29T19:05:28.300Z,2.27
2022-12-29T19:07:56.299Z,2.47
2022-12-29T19:10:26.293Z,2.70
2022-12-29T19:12:54.509Z,2.53
2022-12-29T19:15:25.306Z,2.20
2022-12-29T19:18:24.097Z,2.60
2022-12-29T19:20:44.766Z,3.00
2022-12-29T19:23:14.276Z,2.57
2022-12-29T19:25:42.544Z,2.97
2022-12-29T19:28:17.782Z,2.63
2022-12-29T19:30:51.649Z,2.97
2022-12-29T19:33:21.107Z,2.63
2022-12-29T19:35:50.619Z,2.60
2022-12-29T19:38:18.730Z,2.40
2022-12-29T19:40:48.867Z,3.07
2022-12-29T19:43:16.910Z,3.23
2022-12-29T19:45:45.970Z,2.70
2022-12-29T19:48:15.622Z,2.47
2022-12-29T19:50:44.183Z,2.40
2022-12-29T19:53:14.696Z,2.90
2022-12-29T19:55:43.877Z,2.50
2022-12-29T19:58:11.970Z,3.20
2022-12-29T20:00:40.847Z,2.97
2022-12-29T20:03:09.044Z,2.63
2022-12-29T20:05:37.393Z,3.03
2022-12-29T20:08:05.547Z,3.03
2022-12-29T20:10:34.873Z,3.37
2022-12-29T20:13:04.410Z,3.23
2022-12-29T20:15:32.387Z,2.63
2022-12-29T20:18:15.827Z,2.70
2022-12-29T20:20:44.107Z,2.53
2022-12-29T20:23:12.062Z,2.90
2022-12-29T20:25:45.131Z,3.03
2022-12-29T20:28:14.321Z,2.77
2022-12-29T20:30:42.231Z,2.50
2022-12-29T20:33:10.261Z,2.73
2022-12-29T20:35:38.299Z,2.87
2022-12-29T20:38:06.713Z,2.87
2022-12-29T20:40:36.098Z,2.90
2022-12-29T20:43:08.527Z,3.53
2022-12-29T20:45:36.441Z,3.07
2022-12-29T20:48:04.406Z,3.60
2022-12-29T20:50:32.293Z,2.77
2022-12-29T20:53:00.190Z,2.50
2022-12-29T20:55:28.119Z,3.30
2022-12-29T20:58:25.938Z,2.80
2022-12-29T21:00:45.364Z,3.43
2022-12-29T21:03:13.356Z,2.70
2022-12-29T21:05:41.406Z,2.97
2022-12-29T21:08:11.536Z,2.87
2022-12-29T21:10:39.644Z,3.43
2022-12-29T21:13:07.525Z,3.67
2022-12-29T21:15:35.360Z,3.00
2022-12-29T21:18:04.698Z,3.40
2022-12-29T21:20:32.674Z,4.20
2022-12-29T21:23:01.829Z,2.90
2022-12-29T21:25:36.753Z,3.27
2022-12-29T21:28:05.185Z,3.37
2022-12-29T21:30:33.327Z,3.00
2022-12-29T21:33:01.370Z,3.27
2022-12-29T21:35:30.825Z,2.83
2022-12-29T21:37:58.675Z,3.40
2022-12-29T21:40:27.019Z,3.27
2022-12-29T21:42:54.920Z,3.27
2022-12-29T21:45:28.602Z,3.40
2022-12-29T21:48:17.718Z,2.80
2022-12-29T21:51:05.810Z,2.73
2022-12-29T21:53:40.209Z,3.00
2022-12-29T21:56:11.019Z,3.00
2022-12-29T21:58:57.705Z,3.43
2022-12-29T22:01:44.780Z,2.63
2022-12-29T22:04:32.203Z,2.90
2022-12-29T22:07:20.312Z,3.07
2022-12-29T22:10:05.779Z,3.63
2022-12-29T22:12:51.824Z,3.43
2022-12-29T22:15:20.005Z,3.53
2022-12-29T22:17:49.257Z,2.70
2022-12-29T22:20:17.978Z,3.60
2022-12-29T22:22:47.435Z,3.40
2022-12-29T22:25:15.548Z,3.00
2022-12-29T22:27:43.789Z,3.37
2022-12-29T22:30:12.869Z,3.23
2022-12-29T22:32:41.249Z,3.33
2022-12-29T22:35:10.687Z,2.80
2022-12-29T22:37:40.698Z,3.80
2022-12-29T22:40:12.014Z,3.20
2022-12-29T22:42:40.198Z,3.07
2022-12-29T22:45:09.472Z,3.43
2022-12-29T22:47:37.582Z,2.90
2022-12-29T22:50:06.345Z,3.00
2022-12-29T22:52:34.239Z,3.03
2022-12-29T22:55:06.678Z,3.33
2022-12-29T22:57:36.945Z,3.00
2022-12-29T23:00:06.657Z,3.10
2022-12-29T23:02:34.705Z,3.10
2022-12-29T23:05:04.787Z,3.17
2022-12-29T23:07:34.468Z,3.77
2022-12-29T23:10:02.457Z,3.00
2022-12-29T23:12:30.542Z,2.70
2022-12-29T23:14:59.911Z,3.07
2022-12-29T23:17:27.964Z,2.83
2022-12-29T23:19:55.837Z,3.03
2022-12-29T23:22:24.973Z,3.10
2022-12-29T23:24:52.937Z,3.13
2022-12-29T23:27:20.872Z,3.23
2022-12-29T23:29:48.745Z,3.33
2022-12-29T23:32:18.004Z,3.50
2022-12-29T23:34:45.909Z,2.80
2022-12-29T23:37:14.193Z,2.63
2022-12-29T23:39:42.154Z,2.90
2022-12-29T23:42:11.283Z,2.87
2022-12-29T23:44:39.183Z,3.07
2022-12-29T23:47:07.227Z,2.67
2022-12-29T23:49:36.556Z,3.23
2022-12-29T23:52:04.464Z,2.93
2022-12-29T23:54:32.325Z,2.83
2022-12-29T23:57:00.197Z,2.53
2022-12-29T23:59:28.213Z,3.03
